sensor_id;sensor_type;location;lat;lon;timestamp;P1;durP1;ratioP1;P2;durP2;ratioP2
4106;SDS011;21906;50.812;7.132;2023-12-20T00:00:35;3.33;;;3.03;;
4106;SDS011;21906;50.812;7.132;2023-12-20T00:03:02;3.67;;;2.90;;
4106;SDS011;21906;50.812;7.132;2023-12-20T00:05:29;3.10;;;2.90;;
4106;SDS011;21906;50.812;7.132;2023-12-20T00:07:57;3.23;;;2.80;;
4106;SDS011;21906;50.812;7.132;2023-12-20T00:10:22;3.30;;;3.00;;
4106;SDS011;21906;50.812;7.132;2023-12-20T00:12:48;3.60;;;3.40;;
4106;SDS011;21906;50.812;7.132;2023-12-20T00:15:14;3.17;;;2.97;;
4106;SDS011;21906;50.812;7.132;2023-12-20T00:17:39;3.57;;;3.30;;
4106;SDS011;21906;50.812;7.132;2023-12-20T00:20:05;3.43;;;3.23;;
4106;SDS011;21906;50.812;7.132;2023-12-20T00:22:31;3.17;;;2.87;;
4106;SDS011;21906;50.812;7.132;2023-12-20T00:24:57;3.40;;;3.20;;
4106;SDS011;21906;50.812;7.132;2023-12-20T00:27:22;3.70;;;3.50;;
4106;SDS011;21906;50.812;7.132;2023-12-20T00:29:48;3.80;;;3.60;;
4106;SDS011;21906;50.812;7.132;2023-12-20T00:32:15;3.60;;;3.30;;
4106;SDS011;21906;50.812;7.132;2023-12-20T00:34:41;3.63;;;3.33;;
4106;SDS011;21906;50.812;7.132;2023-12-20T00:37:07;4.20;;;3.90;;
4106;SDS011;21906;50.812;7.132;2023-12-20T00:39:33;4.17;;;3.77;;
4106;SDS011;21906;50.812;7.132;2023-12-20T00:41:58;3.67;;;3.40;;
4106;SDS011;21906;50.812;7.132;2023-12-20T00:44:24;4.60;;;4.20;;
4106;SDS011;21906;50.812;7.132;2023-12-20T00:46:50;4.30;;;4.00;;
4106;SDS011;21906;50.812;7.132;2023-12-20T00:49:16;4.37;;;4.00;;
4106;SDS011;21906;50.812;7.132;2023-12-20T00:51:42;4.87;;;4.00;;
4106;SDS011;21906;50.812;7.132;2023-12-20T00:54:07;4.10;;;3.80;;
4106;SDS011;21906;50.812;7.132;2023-12-20T00:56:34;4.60;;;4.30;;
4106;SDS011;21906;50.812;7.132;2023-12-20T00:59:00;5.37;;;4.17;;
4106;SDS011;21906;50.812;7.132;2023-12-20T01:01:25;4.03;;;3.73;;
4106;SDS011;21906;50.812;7.132;2023-12-20T01:03:51;5.73;;;4.40;;
4106;SDS011;21906;50.812;7.132;2023-12-20T01:06:17;5.07;;;4.53;;
4106;SDS011;21906;50.812;7.132;2023-12-20T01:08:43;4.93;;;4.53;;
4106;SDS011;21906;50.812;7.132;2023-12-20T01:11:09;6.03;;;5.43;;
4106;SDS011;21906;50.812;7.132;2023-12-20T01:13:34;6.60;;;5.90;;
4106;SDS011;21906;50.812;7.132;2023-12-20T01:16:00;7.27;;;6.33;;
4106;SDS011;21906;50.812;7.132;2023-12-20T01:18:26;7.83;;;6.80;;
4106;SDS011;21906;50.812;7.132;2023-12-20T01:20:52;9.57;;;7.40;;
4106;SDS011;21906;50.812;7.132;2023-12-20T01:23:17;9.27;;;7.50;;
4106;SDS011;21906;50.812;7.132;2023-12-20T01:25:43;11.53;;;8.53;;
4106;SDS011;21906;50.812;7.132;2023-12-20T01:28:08;8.40;;;7.50;;
4106;SDS011;21906;50.812;7.132;2023-12-20T01:30:34;9.57;;;7.90;;
4106;SDS011;21906;50.812;7.132;2023-12-20T01:33:00;9.97;;;8.90;;
4106;SDS011;21906;50.812;7.132;2023-12-20T01:35:26;8.77;;;7.60;;
4106;SDS011;21906;50.812;7.132;2023-12-20T01:37:52;10.37;;;7.83;;
4106;SDS011;21906;50.812;7.132;2023-12-20T01:40:21;11.40;;;7.90;;
4106;SDS011;21906;50.812;7.132;2023-12-20T01:42:47;7.47;;;6.53;;
4106;SDS011;21906;50.812;7.132;2023-12-20T01:45:22;7.73;;;5.87;;
4106;SDS011;21906;50.812;7.132;2023-12-20T01:47:48;8.00;;;6.43;;
4106;SDS011;21906;50.812;7.132;2023-12-20T01:50:13;8.67;;;5.60;;
4106;SDS011;21906;50.812;7.132;2023-12-20T01:52:39;7.87;;;6.07;;
4106;SDS011;21906;50.812;7.132;2023-12-20T01:55:06;6.13;;;5.60;;
4106;SDS011;21906;50.812;7.132;2023-12-20T01:57:38;9.37;;;6.40;;
4106;SDS011;21906;50.812;7.132;2023-12-20T02:00:07;9.50;;;6.03;;
4106;SDS011;21906;50.812;7.132;2023-12-20T02:02:34;9.00;;;6.60;;
4106;SDS011;21906;50.812;7.132;2023-12-20T02:05:04;8.83;;;6.80;;
4106;SDS011;21906;50.812;7.132;2023-12-20T02:07:31;9.00;;;6.43;;
4106;SDS011;21906;50.812;7.132;2023-12-20T02:09:57;9.20;;;6.70;;
4106;SDS011;21906;50.812;7.132;2023-12-20T02:12:22;9.60;;;7.83;;
4106;SDS011;21906;50.812;7.132;2023-12-20T02:14:48;10.40;;;7.40;;
4106;SDS011;21906;50.812;7.132;2023-12-20T02:17:15;10.97;;;7.30;;
4106;SDS011;21906;50.812;7.132;2023-12-20T02:19:41;10.97;;;7.83;;
4106;SDS011;21906;50.812;7.132;2023-12-20T02:22:10;15.60;;;8.60;;
4106;SDS011;21906;50.812;7.132;2023-12-20T02:24:36;11.37;;;7.90;;
4106;SDS011;21906;50.812;7.132;2023-12-20T02:27:02;9.30;;;8.03;;
4106;SDS011;21906;50.812;7.132;2023-12-20T02:29:30;10.03;;;6.70;;
4106;SDS011;21906;50.812;7.132;2023-12-20T02:31:56;10.60;;;6.27;;
4106;SDS011;21906;50.812;7.132;2023-12-20T02:34:22;9.37;;;6.30;;
4106;SDS011;21906;50.812;7.132;2023-12-20T02:36:47;11.23;;;6.33;;
4106;SDS011;21906;50.812;7.132;2023-12-20T02:39:13;6.43;;;5.30;;
4106;SDS011;21906;50.812;7.132;2023-12-20T02:41:39;11.53;;;6.30;;
4106;SDS011;21906;50.812;7.132;2023-12-20T02:44:05;5.20;;;4.70;;
4106;SDS011;21906;50.812;7.132;2023-12-20T02:46:30;9.50;;;5.37;;
4106;SDS011;21906;50.812;7.132;2023-12-20T02:48:57;5.73;;;5.13;;
4106;SDS011;21906;50.812;7.132;2023-12-20T02:51:23;11.40;;;4.60;;
4106;SDS011;21906;50.812;7.132;2023-12-20T02:53:48;6.07;;;3.67;;
4106;SDS011;21906;50.812;7.132;2023-12-20T02:56:14;4.90;;;2.97;;
4106;SDS011;21906;50.812;7.132;2023-12-20T02:58:39;5.93;;;3.00;;
4106;SDS011;21906;50.812;7.132;2023-12-20T03:01:05;6.43;;;2.47;;
4106;SDS011;21906;50.812;7.132;2023-12-20T03:03:31;6.77;;;3.00;;
4106;SDS011;21906;50.812;7.132;2023-12-20T03:05:57;6.23;;;2.50;;
4106;SDS011;21906;50.812;7.132;2023-12-20T03:08:23;6.90;;;2.77;;
4106;SDS011;21906;50.812;7.132;2023-12-20T03:10:48;5.23;;;2.90;;
4106;SDS011;21906;50.812;7.132;2023-12-20T03:13:14;5.23;;;2.80;;
4106;SDS011;21906;50.812;7.132;2023-12-20T03:15:40;6.27;;;2.67;;
4106;SDS011;21906;50.812;7.132;2023-12-20T03:18:05;4.53;;;2.43;;
4106;SDS011;21906;50.812;7.132;2023-12-20T03:20:31;5.83;;;2.27;;
4106;SDS011;21906;50.812;7.132;2023-12-20T03:23:00;8.87;;;2.80;;
4106;SDS011;21906;50.812;7.132;2023-12-20T03:25:26;6.97;;;3.17;;
4106;SDS011;21906;50.812;7.132;2023-12-20T03:27:52;7.60;;;2.30;;
4106;SDS011;21906;50.812;7.132;2023-12-20T03:30:18;10.73;;;2.83;;
4106;SDS011;21906;50.812;7.132;2023-12-20T03:32:44;10.20;;;2.90;;
4106;SDS011;21906;50.812;7.132;2023-12-20T03:35:09;4.83;;;2.30;;
4106;SDS011;21906;50.812;7.132;2023-12-20T03:37:35;7.80;;;2.70;;
4106;SDS011;21906;50.812;7.132;2023-12-20T03:40:01;9.13;;;2.87;;
4106;SDS011;21906;50.812;7.132;2023-12-20T03:42:27;10.43;;;3.00;;
4106;SDS011;21906;50.812;7.132;2023-12-20T03:44:52;6.60;;;2.43;;
4106;SDS011;21906;50.812;7.132;2023-12-20T03:47:18;6.77;;;2.60;;
4106;SDS011;21906;50.812;7.132;2023-12-20T03:49:44;7.03;;;2.20;;
4106;SDS011;21906;50.812;7.132;2023-12-20T03:52:09;9.63;;;2.30;;
4106;SDS011;21906;50.812;7.132;2023-12-20T03:54:35;17.60;;;2.70;;
4106;SDS011;21906;50.812;7.132;2023-12-20T03:57:01;6.90;;;2.20;;
4106;SDS011;21906;50.812;7.132;2023-12-20T03:59:26;6.23;;;2.43;;
4106;SDS011;21906;50.812;7.132;2023-12-20T04:01:52;12.97;;;2.70;;
4106;SDS011;21906;50.812;7.132;2023-12-20T04:04:18;5.33;;;2.60;;
4106;SDS011;21906;50.812;7.132;2023-12-20T04:06:44;9.93;;;2.73;;
4106;SDS011;21906;50.812;7.132;2023-12-20T04:09:10;10.73;;;3.10;;
4106;SDS011;21906;50.812;7.132;2023-12-20T04:11:38;11.13;;;3.00;;
4106;SDS011;21906;50.812;7.132;2023-12-20T04:14:04;8.70;;;3.40;;
4106;SDS011;21906;50.812;7.132;2023-12-20T04:16:30;6.30;;;3.10;;
4106;SDS011;21906;50.812;7.132;2023-12-20T04:18:55;8.77;;;3.60;;
4106;SDS011;21906;50.812;7.132;2023-12-20T04:21:21;7.23;;;2.77;;
4106;SDS011;21906;50.812;7.132;2023-12-20T04:23:47;9.50;;;3.13;;
4106;SDS011;21906;50.812;7.132;2023-12-20T04:26:12;6.13;;;2.77;;
4106;SDS011;21906;50.812;7.132;2023-12-20T04:28:38;15.40;;;3.23;;
4106;SDS011;21906;50.812;7.132;2023-12-20T04:31:03;4.03;;;2.43;;
4106;SDS011;21906;50.812;7.132;2023-12-20T04:33:29;8.83;;;2.90;;
4106;SDS011;21906;50.812;7.132;2023-12-20T04:35:54;6.73;;;3.40;;
4106;SDS011;21906;50.812;7.132;2023-12-20T04:38:20;6.20;;;3.00;;
4106;SDS011;21906;50.812;7.132;2023-12-20T04:40:46;9.30;;;3.43;;
4106;SDS011;21906;50.812;7.132;2023-12-20T04:43:12;7.60;;;3.70;;
4106;SDS011;21906;50.812;7.132;2023-12-20T04:45:38;5.63;;;3.80;;
4106;SDS011;21906;50.812;7.132;2023-12-20T04:48:04;9.77;;;3.43;;
4106;SDS011;21906;50.812;7.132;2023-12-20T04:50:30;11.53;;;3.40;;
4106;SDS011;21906;50.812;7.132;2023-12-20T04:52:55;8.20;;;3.47;;
4106;SDS011;21906;50.812;7.132;2023-12-20T04:55:21;7.40;;;3.10;;
4106;SDS011;21906;50.812;7.132;2023-12-20T04:57:46;6.33;;;3.63;;
4106;SDS011;21906;50.812;7.132;2023-12-20T05:00:12;11.80;;;3.87;;
4106;SDS011;21906;50.812;7.132;2023-12-20T05:02:40;5.50;;;3.47;;
4106;SDS011;21906;50.812;7.132;2023-12-20T05:05:06;8.90;;;4.07;;
4106;SDS011;21906;50.812;7.132;2023-12-20T05:07:32;9.60;;;3.63;;
4106;SDS011;21906;50.812;7.132;2023-12-20T05:09:58;9.83;;;4.17;;
4106;SDS011;21906;50.812;7.132;2023-12-20T05:12:24;7.40;;;3.70;;
4106;SDS011;21906;50.812;7.132;2023-12-20T05:14:49;9.00;;;3.90;;
4106;SDS011;21906;50.812;7.132;2023-12-20T05:17:16;7.73;;;3.93;;
4106;SDS011;21906;50.812;7.132;2023-12-20T05:19:42;7.43;;;3.97;;
4106;SDS011;21906;50.812;7.132;2023-12-20T05:22:07;8.13;;;4.03;;
4106;SDS011;21906;50.812;7.132;2023-12-20T05:24:33;6.40;;;4.00;;
4106;SDS011;21906;50.812;7.132;2023-12-20T05:26:59;6.73;;;3.67;;
4106;SDS011;21906;50.812;7.132;2023-12-20T05:29:25;7.57;;;4.00;;
4106;SDS011;21906;50.812;7.132;2023-12-20T05:31:50;10.13;;;4.13;;
4106;SDS011;21906;50.812;7.132;2023-12-20T05:34:19;6.97;;;3.93;;
4106;SDS011;21906;50.812;7.132;2023-12-20T05:36:45;5.70;;;3.80;;
4106;SDS011;21906;50.812;7.132;2023-12-20T05:39:10;9.03;;;4.07;;
4106;SDS011;21906;50.812;7.132;2023-12-20T05:41:36;11.80;;;3.70;;
4106;SDS011;21906;50.812;7.132;2023-12-20T05:44:02;9.43;;;3.70;;
4106;SDS011;21906;50.812;7.132;2023-12-20T05:46:28;10.33;;;4.40;;
4106;SDS011;21906;50.812;7.132;2023-12-20T05:48:53;8.93;;;4.30;;
4106;SDS011;21906;50.812;7.132;2023-12-20T05:51:19;7.27;;;4.53;;
4106;SDS011;21906;50.812;7.132;2023-12-20T05:53:44;15.33;;;4.93;;
4106;SDS011;21906;50.812;7.132;2023-12-20T05:56:10;8.50;;;4.00;;
4106;SDS011;21906;50.812;7.132;2023-12-20T05:58:36;7.47;;;3.93;;
4106;SDS011;21906;50.812;7.132;2023-12-20T06:01:04;12.40;;;3.97;;
4106;SDS011;21906;50.812;7.132;2023-12-20T06:03:30;10.90;;;4.17;;
4106;SDS011;21906;50.812;7.132;2023-12-20T06:05:55;8.17;;;4.30;;
4106;SDS011;21906;50.812;7.132;2023-12-20T06:08:21;6.17;;;4.50;;
4106;SDS011;21906;50.812;7.132;2023-12-20T06:10:47;10.10;;;3.97;;
4106;SDS011;21906;50.812;7.132;2023-12-20T06:13:12;10.93;;;4.33;;
4106;SDS011;21906;50.812;7.132;2023-12-20T06:15:39;6.70;;;4.00;;
4106;SDS011;21906;50.812;7.132;2023-12-20T06:18:07;8.63;;;4.40;;
4106;SDS011;21906;50.812;7.132;2023-12-20T06:20:33;4.43;;;3.87;;
4106;SDS011;21906;50.812;7.132;2023-12-20T06:22:58;7.10;;;4.37;;
4106;SDS011;21906;50.812;7.132;2023-12-20T06:25:24;10.30;;;4.40;;
4106;SDS011;21906;50.812;7.132;2023-12-20T06:27:50;22.63;;;5.10;;
4106;SDS011;21906;50.812;7.132;2023-12-20T06:30:16;13.20;;;4.50;;
4106;SDS011;21906;50.812;7.132;2023-12-20T06:32:41;9.40;;;4.30;;
4106;SDS011;21906;50.812;7.132;2023-12-20T06:35:08;11.17;;;4.80;;
4106;SDS011;21906;50.812;7.132;2023-12-20T06:37:34;10.33;;;3.70;;
4106;SDS011;21906;50.812;7.132;2023-12-20T06:40:00;11.13;;;4.30;;
4106;SDS011;21906;50.812;7.132;2023-12-20T06:42:26;9.33;;;4.87;;
4106;SDS011;21906;50.812;7.132;2023-12-20T06:44:52;8.87;;;3.87;;
4106;SDS011;21906;50.812;7.132;2023-12-20T06:47:17;10.67;;;4.50;;
4106;SDS011;21906;50.812;7.132;2023-12-20T06:49:43;16.23;;;4.80;;
4106;SDS011;21906;50.812;7.132;2023-12-20T06:52:09;8.07;;;4.07;;
4106;SDS011;21906;50.812;7.132;2023-12-20T06:54:35;14.00;;;4.93;;
4106;SDS011;21906;50.812;7.132;2023-12-20T06:57:01;10.50;;;4.53;;
4106;SDS011;21906;50.812;7.132;2023-12-20T06:59:28;9.17;;;4.80;;
4106;SDS011;21906;50.812;7.132;2023-12-20T07:01:54;8.93;;;4.63;;
4106;SDS011;21906;50.812;7.132;2023-12-20T07:04:20;9.37;;;4.33;;
4106;SDS011;21906;50.812;7.132;2023-12-20T07:06:47;12.60;;;4.73;;
4106;SDS011;21906;50.812;7.132;2023-12-20T07:09:16;7.47;;;4.07;;
4106;SDS011;21906;50.812;7.132;2023-12-20T07:11:41;8.03;;;4.60;;
4106;SDS011;21906;50.812;7.132;2023-12-20T07:14:07;7.90;;;4.37;;
4106;SDS011;21906;50.812;7.132;2023-12-20T07:16:33;9.80;;;4.73;;
4106;SDS011;21906;50.812;7.132;2023-12-20T07:19:00;12.10;;;4.70;;
4106;SDS011;21906;50.812;7.132;2023-12-20T07:21:25;10.00;;;3.93;;
4106;SDS011;21906;50.812;7.132;2023-12-20T07:23:51;9.87;;;4.20;;
4106;SDS011;21906;50.812;7.132;2023-12-20T07:26:17;9.87;;;3.80;;
4106;SDS011;21906;50.812;7.132;2023-12-20T07:28:42;11.77;;;5.93;;
4106;SDS011;21906;50.812;7.132;2023-12-20T07:31:08;11.60;;;4.57;;
4106;SDS011;21906;50.812;7.132;2023-12-20T07:33:34;7.60;;;4.17;;
4106;SDS011;21906;50.812;7.132;2023-12-20T07:35:59;6.97;;;3.83;;
4106;SDS011;21906;50.812;7.132;2023-12-20T07:38:26;13.17;;;4.23;;
4106;SDS011;21906;50.812;7.132;2023-12-20T07:40:51;21.27;;;4.30;;
4106;SDS011;21906;50.812;7.132;2023-12-20T07:43:17;14.33;;;4.43;;
4106;SDS011;21906;50.812;7.132;2023-12-20T07:45:43;10.50;;;4.63;;
4106;SDS011;21906;50.812;7.132;2023-12-20T07:48:09;7.53;;;4.00;;
4106;SDS011;21906;50.812;7.132;2023-12-20T07:50:34;15.03;;;4.30;;
4106;SDS011;21906;50.812;7.132;2023-12-20T07:53:00;6.33;;;4.30;;
4106;SDS011;21906;50.812;7.132;2023-12-20T07:55:26;12.97;;;5.10;;
4106;SDS011;21906;50.812;7.132;2023-12-20T07:57:52;12.83;;;4.20;;
4106;SDS011;21906;50.812;7.132;2023-12-20T08:00:18;12.43;;;4.13;;
4106;SDS011;21906;50.812;7.132;2023-12-20T08:02:44;11.00;;;3.93;;
4106;SDS011;21906;50.812;7.132;2023-12-20T08:05:10;7.20;;;3.37;;
4106;SDS011;21906;50.812;7.132;2023-12-20T08:07:36;12.83;;;3.53;;
4106;SDS011;21906;50.812;7.132;2023-12-20T08:10:01;7.57;;;3.77;;
4106;SDS011;21906;50.812;7.132;2023-12-20T08:12:27;12.97;;;4.50;;
4106;SDS011;21906;50.812;7.132;2023-12-20T08:14:53;6.80;;;3.37;;
4106;SDS011;21906;50.812;7.132;2023-12-20T08:17:19;8.63;;;4.13;;
4106;SDS011;21906;50.812;7.132;2023-12-20T08:19:45;8.10;;;4.20;;
4106;SDS011;21906;50.812;7.132;2023-12-20T08:22:11;8.90;;;3.90;;
4106;SDS011;21906;50.812;7.132;2023-12-20T08:24:37;6.60;;;4.00;;
4106;SDS011;21906;50.812;7.132;2023-12-20T08:27:03;8.13;;;3.63;;
4106;SDS011;21906;50.812;7.132;2023-12-20T08:29:29;9.30;;;3.83;;
4106;SDS011;21906;50.812;7.132;2023-12-20T08:31:55;6.80;;;3.30;;
4106;SDS011;21906;50.812;7.132;2023-12-20T08:34:22;11.67;;;3.60;;
4106;SDS011;21906;50.812;7.132;2023-12-20T08:36:49;9.47;;;4.17;;
4106;SDS011;21906;50.812;7.132;2023-12-20T08:39:16;6.17;;;3.67;;
4106;SDS011;21906;50.812;7.132;2023-12-20T08:41:42;11.33;;;3.90;;
4106;SDS011;21906;50.812;7.132;2023-12-20T08:44:08;10.83;;;4.10;;
4106;SDS011;21906;50.812;7.132;2023-12-20T08:46:34;6.87;;;3.60;;
4106;SDS011;21906;50.812;7.132;2023-12-20T08:49:00;12.53;;;4.27;;
4106;SDS011;21906;50.812;7.132;2023-12-20T08:51:27;7.93;;;3.70;;
4106;SDS011;21906;50.812;7.132;2023-12-20T08:53:53;9.40;;;3.80;;
4106;SDS011;21906;50.812;7.132;2023-12-20T08:56:19;14.20;;;3.80;;
4106;SDS011;21906;50.812;7.132;2023-12-20T08:58:45;10.30;;;3.60;;
4106;SDS011;21906;50.812;7.132;2023-12-20T09:01:12;12.33;;;3.97;;
4106;SDS011;21906;50.812;7.132;2023-12-20T09:03:38;11.33;;;4.60;;
4106;SDS011;21906;50.812;7.132;2023-12-20T09:06:05;6.13;;;3.60;;
4106;SDS011;21906;50.812;7.132;2023-12-20T09:08:31;10.43;;;4.03;;
4106;SDS011;21906;50.812;7.132;2023-12-20T09:10:57;8.30;;;3.53;;
4106;SDS011;21906;50.812;7.132;2023-12-20T09:13:22;4.10;;;3.30;;
4106;SDS011;21906;50.812;7.132;2023-12-20T09:15:54;6.40;;;3.67;;
4106;SDS011;21906;50.812;7.132;2023-12-20T09:18:20;7.10;;;3.97;;
4106;SDS011;21906;50.812;7.132;2023-12-20T09:20:46;12.60;;;4.30;;
4106;SDS011;21906;50.812;7.132;2023-12-20T09:23:11;12.00;;;4.27;;
4106;SDS011;21906;50.812;7.132;2023-12-20T09:25:37;13.13;;;4.17;;
4106;SDS011;21906;50.812;7.132;2023-12-20T09:28:03;9.33;;;3.60;;
4106;SDS011;21906;50.812;7.132;2023-12-20T09:30:28;10.00;;;4.17;;
4106;SDS011;21906;50.812;7.132;2023-12-20T09:32:55;12.93;;;3.60;;
4106;SDS011;21906;50.812;7.132;2023-12-20T09:35:21;9.33;;;3.30;;
4106;SDS011;21906;50.812;7.132;2023-12-20T09:37:47;7.93;;;3.60;;
4106;SDS011;21906;50.812;7.132;2023-12-20T09:40:12;9.90;;;3.53;;
4106;SDS011;21906;50.812;7.132;2023-12-20T09:45:14;9.40;;;3.70;;
4106;SDS011;21906;50.812;7.132;2023-12-20T09:47:43;8.90;;;4.13;;
4106;SDS011;21906;50.812;7.132;2023-12-20T09:50:09;6.50;;;3.30;;
4106;SDS011;21906;50.812;7.132;2023-12-20T09:52:36;7.60;;;3.53;;
4106;SDS011;21906;50.812;7.132;2023-12-20T09:55:04;7.33;;;3.33;;
4106;SDS011;21906;50.812;7.132;2023-12-20T09:57:33;5.40;;;4.03;;
4106;SDS011;21906;50.812;7.132;2023-12-20T09:59:59;6.60;;;2.90;;
4106;SDS011;21906;50.812;7.132;2023-12-20T10:02:25;6.07;;;3.30;;
4106;SDS011;21906;50.812;7.132;2023-12-20T10:04:54;7.07;;;3.30;;
4106;SDS011;21906;50.812;7.132;2023-12-20T10:07:20;9.33;;;3.60;;
4106;SDS011;21906;50.812;7.132;2023-12-20T10:09:47;7.40;;;3.20;;
4106;SDS011;21906;50.812;7.132;2023-12-20T10:12:13;8.70;;;3.60;;
4106;SDS011;21906;50.812;7.132;2023-12-20T10:14:39;7.90;;;3.50;;
4106;SDS011;21906;50.812;7.132;2023-12-20T10:17:05;11.03;;;3.77;;
4106;SDS011;21906;50.812;7.132;2023-12-20T10:19:32;7.00;;;2.70;;
4106;SDS011;21906;50.812;7.132;2023-12-20T10:22:01;7.50;;;2.90;;
4106;SDS011;21906;50.812;7.132;2023-12-20T10:24:30;9.90;;;3.70;;
4106;SDS011;21906;50.812;7.132;2023-12-20T10:27:07;9.57;;;3.53;;
4106;SDS011;21906;50.812;7.132;2023-12-20T10:29:36;10.23;;;3.40;;
4106;SDS011;21906;50.812;7.132;2023-12-20T10:32:22;5.33;;;3.00;;
4106;SDS011;21906;50.812;7.132;2023-12-20T10:34:49;8.40;;;4.30;;
4106;SDS011;21906;50.812;7.132;2023-12-20T10:37:15;9.40;;;3.63;;
4106;SDS011;21906;50.812;7.132;2023-12-20T10:39:41;7.40;;;3.23;;
4106;SDS011;21906;50.812;7.132;2023-12-20T10:42:09;3.87;;;3.30;;
4106;SDS011;21906;50.812;7.132;2023-12-20T10:44:36;9.00;;;3.60;;
4106;SDS011;21906;50.812;7.132;2023-12-20T10:47:02;9.87;;;3.60;;
4106;SDS011;21906;50.812;7.132;2023-12-20T10:49:30;10.87;;;3.50;;
4106;SDS011;21906;50.812;7.132;2023-12-20T10:51:57;5.90;;;3.50;;
4106;SDS011;21906;50.812;7.132;2023-12-20T10:54:26;11.37;;;3.30;;
4106;SDS011;21906;50.812;7.132;2023-12-20T10:56:52;6.93;;;3.80;;
4106;SDS011;21906;50.812;7.132;2023-12-20T10:59:19;11.53;;;3.20;;
4106;SDS011;21906;50.812;7.132;2023-12-20T11:01:47;4.33;;;3.23;;
4106;SDS011;21906;50.812;7.132;2023-12-20T11:04:15;7.67;;;3.10;;
4106;SDS011;21906;50.812;7.132;2023-12-20T11:06:49;11.03;;;3.50;;
4106;SDS011;21906;50.812;7.132;2023-12-20T11:14:39;8.80;;;3.33;;
4106;SDS011;21906;50.812;7.132;2023-12-20T11:17:15;7.40;;;3.27;;
4106;SDS011;21906;50.812;7.132;2023-12-20T11:22:26;5.00;;;3.60;;
4106;SDS011;21906;50.812;7.132;2023-12-20T11:24:57;12.03;;;3.77;;
4106;SDS011;21906;50.812;7.132;2023-12-20T11:27:33;7.77;;;3.47;;
4106;SDS011;21906;50.812;7.132;2023-12-20T11:30:00;9.60;;;3.53;;
4106;SDS011;21906;50.812;7.132;2023-12-20T11:32:32;5.20;;;3.60;;
4106;SDS011;21906;50.812;7.132;2023-12-20T11:37:38;10.70;;;3.80;;
4106;SDS011;21906;50.812;7.132;2023-12-20T11:40:08;7.23;;;3.70;;
4106;SDS011;21906;50.812;7.132;2023-12-20T11:42:40;6.50;;;3.63;;
4106;SDS011;21906;50.812;7.132;2023-12-20T11:45:10;8.23;;;4.13;;
4106;SDS011;21906;50.812;7.132;2023-12-20T11:47:40;9.80;;;4.00;;
4106;SDS011;21906;50.812;7.132;2023-12-20T11:50:07;5.97;;;3.90;;
4106;SDS011;21906;50.812;7.132;2023-12-20T11:52:33;8.07;;;3.57;;
4106;SDS011;21906;50.812;7.132;2023-12-20T11:55:00;8.37;;;4.00;;
4106;SDS011;21906;50.812;7.132;2023-12-20T11:57:25;11.33;;;4.00;;
4106;SDS011;21906;50.812;7.132;2023-12-20T11:59:51;9.10;;;3.97;;
4106;SDS011;21906;50.812;7.132;2023-12-20T12:02:17;5.57;;;3.67;;
4106;SDS011;21906;50.812;7.132;2023-12-20T12:04:42;5.37;;;3.70;;
4106;SDS011;21906;50.812;7.132;2023-12-20T12:07:08;7.70;;;3.60;;
4106;SDS011;21906;50.812;7.132;2023-12-20T12:09:34;6.33;;;3.60;;
4106;SDS011;21906;50.812;7.132;2023-12-20T12:12:00;8.40;;;4.07;;
4106;SDS011;21906;50.812;7.132;2023-12-20T12:14:26;10.03;;;4.17;;
4106;SDS011;21906;50.812;7.132;2023-12-20T12:16:52;6.13;;;4.10;;
4106;SDS011;21906;50.812;7.132;2023-12-20T12:19:22;9.67;;;4.07;;
4106;SDS011;21906;50.812;7.132;2023-12-20T12:22:03;6.90;;;3.80;;
4106;SDS011;21906;50.812;7.132;2023-12-20T12:24:32;5.93;;;3.70;;
4106;SDS011;21906;50.812;7.132;2023-12-20T12:26:58;4.97;;;3.47;;
4106;SDS011;21906;50.812;7.132;2023-12-20T12:29:24;8.20;;;3.93;;
4106;SDS011;21906;50.812;7.132;2023-12-20T12:31:50;7.83;;;4.80;;
4106;SDS011;21906;50.812;7.132;2023-12-20T12:34:16;9.87;;;3.97;;
4106;SDS011;21906;50.812;7.132;2023-12-20T12:36:43;7.80;;;4.37;;
4106;SDS011;21906;50.812;7.132;2023-12-20T12:39:12;5.87;;;3.67;;
4106;SDS011;21906;50.812;7.132;2023-12-20T12:41:40;8.93;;;4.40;;
4106;SDS011;21906;50.812;7.132;2023-12-20T12:44:06;7.70;;;3.90;;
4106;SDS011;21906;50.812;7.132;2023-12-20T12:46:31;9.63;;;4.27;;
4106;SDS011;21906;50.812;7.132;2023-12-20T12:48:58;7.37;;;3.90;;
4106;SDS011;21906;50.812;7.132;2023-12-20T12:51:23;8.23;;;3.77;;
4106;SDS011;21906;50.812;7.132;2023-12-20T12:53:49;9.87;;;3.70;;
4106;SDS011;21906;50.812;7.132;2023-12-20T12:56:15;7.97;;;4.27;;
4106;SDS011;21906;50.812;7.132;2023-12-20T12:58:41;10.40;;;4.40;;
4106;SDS011;21906;50.812;7.132;2023-12-20T13:01:07;13.53;;;4.20;;
4106;SDS011;21906;50.812;7.132;2023-12-20T13:03:32;10.40;;;3.93;;
4106;SDS011;21906;50.812;7.132;2023-12-20T13:05:59;7.27;;;4.30;;
4106;SDS011;21906;50.812;7.132;2023-12-20T13:08:25;8.60;;;4.17;;
4106;SDS011;21906;50.812;7.132;2023-12-20T13:10:51;6.47;;;3.27;;
4106;SDS011;21906;50.812;7.132;2023-12-20T13:13:17;3.87;;;3.10;;
4106;SDS011;21906;50.812;7.132;2023-12-20T13:15:42;4.73;;;3.83;;
4106;SDS011;21906;50.812;7.132;2023-12-20T13:18:15;5.87;;;3.60;;
4106;SDS011;21906;50.812;7.132;2023-12-20T13:20:43;9.53;;;4.23;;
4106;SDS011;21906;50.812;7.132;2023-12-20T13:23:09;6.63;;;4.00;;
4106;SDS011;21906;50.812;7.132;2023-12-20T13:25:34;7.20;;;4.23;;
4106;SDS011;21906;50.812;7.132;2023-12-20T13:28:00;8.00;;;4.30;;
4106;SDS011;21906;50.812;7.132;2023-12-20T13:30:27;7.47;;;4.60;;
4106;SDS011;21906;50.812;7.132;2023-12-20T13:32:53;9.80;;;4.43;;
4106;SDS011;21906;50.812;7.132;2023-12-20T13:35:19;6.77;;;4.30;;
4106;SDS011;21906;50.812;7.132;2023-12-20T13:37:45;7.13;;;4.20;;
4106;SDS011;21906;50.812;7.132;2023-12-20T13:40:11;9.70;;;4.47;;
4106;SDS011;21906;50.812;7.132;2023-12-20T13:42:38;8.13;;;4.40;;
4106;SDS011;21906;50.812;7.132;2023-12-20T13:45:05;6.90;;;4.50;;
4106;SDS011;21906;50.812;7.132;2023-12-20T13:47:31;8.80;;;4.60;;
4106;SDS011;21906;50.812;7.132;2023-12-20T13:49:57;11.33;;;4.80;;
4106;SDS011;21906;50.812;7.132;2023-12-20T13:52:23;10.10;;;5.00;;
4106;SDS011;21906;50.812;7.132;2023-12-20T13:54:49;8.07;;;5.17;;
4106;SDS011;21906;50.812;7.132;2023-12-20T13:57:15;7.53;;;5.13;;
4106;SDS011;21906;50.812;7.132;2023-12-20T13:59:40;7.90;;;4.43;;
4106;SDS011;21906;50.812;7.132;2023-12-20T14:02:06;14.33;;;4.90;;
4106;SDS011;21906;50.812;7.132;2023-12-20T14:04:32;11.57;;;4.80;;
4106;SDS011;21906;50.812;7.132;2023-12-20T14:06:58;6.30;;;3.90;;
4106;SDS011;21906;50.812;7.132;2023-12-20T14:09:24;6.77;;;4.27;;
4106;SDS011;21906;50.812;7.132;2023-12-20T14:11:50;7.10;;;3.90;;
4106;SDS011;21906;50.812;7.132;2023-12-20T14:14:15;8.10;;;4.40;;
4106;SDS011;21906;50.812;7.132;2023-12-20T14:16:41;6.03;;;4.50;;
4106;SDS011;21906;50.812;7.132;2023-12-20T14:19:10;5.40;;;4.27;;
4106;SDS011;21906;50.812;7.132;2023-12-20T14:21:36;7.17;;;4.00;;
4106;SDS011;21906;50.812;7.132;2023-12-20T14:24:02;4.17;;;3.77;;
4106;SDS011;21906;50.812;7.132;2023-12-20T14:26:29;8.17;;;3.93;;
4106;SDS011;21906;50.812;7.132;2023-12-20T14:28:55;7.20;;;3.97;;
4106;SDS011;21906;50.812;7.132;2023-12-20T14:31:21;7.40;;;4.40;;
4106;SDS011;21906;50.812;7.132;2023-12-20T14:33:49;4.73;;;3.90;;
4106;SDS011;21906;50.812;7.132;2023-12-20T14:36:18;7.53;;;3.70;;
4106;SDS011;21906;50.812;7.132;2023-12-20T14:38:45;5.30;;;3.80;;
4106;SDS011;21906;50.812;7.132;2023-12-20T14:41:12;5.70;;;3.50;;
4106;SDS011;21906;50.812;7.132;2023-12-20T14:43:38;5.93;;;3.33;;
4106;SDS011;21906;50.812;7.132;2023-12-20T14:46:03;8.80;;;3.50;;
4106;SDS011;21906;50.812;7.132;2023-12-20T14:48:30;5.43;;;3.43;;
4106;SDS011;21906;50.812;7.132;2023-12-20T14:50:57;5.37;;;2.83;;
4106;SDS011;21906;50.812;7.132;2023-12-20T14:53:24;4.53;;;2.83;;
4106;SDS011;21906;50.812;7.132;2023-12-20T14:55:50;2.80;;;2.27;;
4106;SDS011;21906;50.812;7.132;2023-12-20T14:58:16;3.30;;;2.77;;
4106;SDS011;21906;50.812;7.132;2023-12-20T15:00:42;4.80;;;2.60;;
4106;SDS011;21906;50.812;7.132;2023-12-20T15:03:09;5.17;;;2.67;;
4106;SDS011;21906;50.812;7.132;2023-12-20T15:05:34;3.00;;;2.70;;